createdAt,value
2019-05-29T00:02:07.945Z,4.00
2019-05-29T00:04:35.335Z,4.77
2019-05-29T00:07:02.718Z,3.43
2019-05-29T00:09:30.434Z,2.87
2019-05-29T00:12:04.443Z,2.37
2019-05-29T00:14:31.855Z,6.47
2019-05-29T00:16:59.323Z,3.77
2019-05-29T00:19:43.927Z,2.07
2019-05-29T00:22:12.344Z,4.90
2019-05-29T00:24:44.166Z,2.93
2019-05-29T00:27:15.533Z,2.47
2019-05-29T00:29:45.269Z,4.27
2019-05-29T00:32:13.470Z,3.20
2019-05-29T00:34:41.071Z,2.67
2019-05-29T00:37:08.584Z,3.83
2019-05-29T00:39:36.186Z,4.00
2019-05-29T00:42:04.014Z,3.03
2019-05-29T00:44:34.283Z,2.43
2019-05-29T00:47:00.903Z,2.90
2019-05-29T00:49:28.335Z,2.10
2019-05-29T00:51:55.828Z,3.10
2019-05-29T00:54:25.763Z,2.80
2019-05-29T00:56:53.217Z,4.03
2019-05-29T00:59:20.661Z,3.10
2019-05-29T01:01:48.349Z,5.13
2019-05-29T01:04:16.068Z,5.60
2019-05-29T01:06:43.481Z,3.90
2019-05-29T01:09:12.288Z,2.77
2019-05-29T01:11:39.720Z,3.07
2019-05-29T01:14:07.234Z,4.90
2019-05-29T01:16:34.696Z,2.60
2019-05-29T01:19:24.369Z,3.60
2019-05-29T01:21:51.910Z,3.47
2019-05-29T01:24:20.533Z,4.27
2019-05-29T01:26:51.175Z,4.23
2019-05-29T01:29:19.491Z,2.67
2019-05-29T01:31:49.126Z,3.70
2019-05-29T01:34:17.599Z,4.23
2019-05-29T01:36:47.353Z,6.47
2019-05-29T01:39:15.138Z,5.70
2019-05-29T01:41:43.114Z,4.10
2019-05-29T01:44:10.513Z,2.97
2019-05-29T01:46:37.968Z,5.57
2019-05-29T01:49:05.486Z,13.57
2019-05-29T01:51:32.975Z,5.83
2019-05-29T01:54:00.850Z,4.10
2019-05-29T01:56:28.304Z,3.20
2019-05-29T01:58:55.667Z,4.47
2019-05-29T02:01:23.982Z,4.70
2019-05-29T02:03:51.437Z,4.57
2019-05-29T02:06:19.875Z,3.43
2019-05-29T02:08:47.466Z,3.17
2019-05-29T02:11:15.076Z,2.80
2019-05-29T02:13:42.712Z,4.40
2019-05-29T02:16:10.120Z,3.60
2019-05-29T02:18:37.863Z,3.13
2019-05-29T02:21:05.566Z,3.47
2019-05-29T02:23:33.278Z,7.47
2019-05-29T02:26:00.756Z,4.47
2019-05-29T02:28:28.454Z,6.47
2019-05-29T02:30:55.920Z,3.50
2019-05-29T02:33:24.215Z,4.23
2019-05-29T02:35:52.980Z,3.67
2019-05-29T02:38:21.150Z,3.00
2019-05-29T02:40:49.913Z,5.87
2019-05-29T02:43:19.260Z,3.70
2019-05-29T02:45:54.134Z,3.83
2019-05-29T02:48:16.251Z,4.63
2019-05-29T02:50:43.803Z,6.23
2019-05-29T02:53:11.527Z,6.60
2019-05-29T02:55:38.915Z,4.07
2019-05-29T02:58:06.616Z,5.37
2019-05-29T03:01:05.336Z,4.17
2019-05-29T03:03:39.158Z,4.87
2019-05-29T03:06:02.232Z,6.47
2019-05-29T03:08:34.977Z,4.70
2019-05-29T03:11:02.551Z,3.97
2019-05-29T03:13:33.691Z,3.43
2019-05-29T03:16:10.727Z,5.27
2019-05-29T03:18:32.572Z,5.97
2019-05-29T03:21:00.932Z,4.63
2019-05-29T03:23:29.125Z,5.47
2019-05-29T03:26:00.345Z,7.43
2019-05-29T03:28:29.964Z,4.50
2019-05-29T03:30:57.875Z,8.53
2019-05-29T03:33:32.483Z,7.20
2019-05-29T03:35:57.119Z,3.90
2019-05-29T03:38:25.935Z,4.63
2019-05-29T03:40:56.583Z,6.40
2019-05-29T03:43:26.143Z,6.50
2019-05-29T03:45:53.780Z,5.90
2019-05-29T03:48:21.514Z,5.60
2019-05-29T03:50:48.946Z,5.67
2019-05-29T03:53:18.279Z,5.83
2019-05-29T03:55:48.413Z,5.00
2019-05-29T03:58:19.111Z,6.63
2019-05-29T04:00:48.763Z,6.17
2019-05-29T04:03:17.560Z,4.60
2019-05-29T04:05:47.043Z,4.50
2019-05-29T04:08:17.261Z,6.03
2019-05-29T04:10:45.287Z,9.43
2019-05-29T04:13:13.251Z,6.43
2019-05-29T04:15:44.817Z,6.43
2019-05-29T04:18:12.575Z,7.60
2019-05-29T04:20:40.858Z,5.63
2019-05-29T04:23:08.359Z,5.50
2019-05-29T04:25:40.643Z,5.03
2019-05-29T04:28:10.824Z,6.33
2019-05-29T04:30:39.202Z,6.03
2019-05-29T04:33:09.428Z,6.93
2019-05-29T04:35:39.388Z,4.70
2019-05-29T04:38:08.174Z,6.00
2019-05-29T04:40:37.223Z,7.97
2019-05-29T04:43:06.322Z,5.27
2019-05-29T04:45:35.365Z,6.47
2019-05-29T04:48:03.030Z,7.80
2019-05-29T04:50:33.410Z,4.27
2019-05-29T04:53:01.793Z,5.37
2019-05-29T04:55:34.809Z,6.03
2019-05-29T04:58:02.294Z,5.53
2019-05-29T05:00:33.120Z,5.47
2019-05-29T05:03:00.630Z,4.30
2019-05-29T05:05:29.296Z,5.77
2019-05-29T05:07:56.749Z,4.40
2019-05-29T05:10:38.151Z,3.97
2019-05-29T05:13:06.088Z,4.70
2019-05-29T05:15:35.902Z,5.17
2019-05-29T05:18:05.450Z,4.80
2019-05-29T05:20:33.924Z,4.80
2019-05-29T05:23:01.385Z,5.30
2019-05-29T05:25:30.010Z,7.10
2019-05-29T05:27:57.423Z,7.40
2019-05-29T05:30:25.090Z,8.63
2019-05-29T05:32:52.511Z,7.30
2019-05-29T05:35:19.979Z,7.93
2019-05-29T05:37:47.435Z,8.30
2019-05-29T05:40:14.905Z,5.20
2019-05-29T05:42:42.344Z,3.60
2019-05-29T05:45:10.353Z,4.17
2019-05-29T05:47:50.351Z,8.90
2019-05-29T05:50:07.561Z,8.10
2019-05-29T05:52:35.302Z,5.37
2019-05-29T05:55:02.774Z,8.15
2019-05-29T05:57:31.494Z,5.42
2019-05-29T05:59:59.015Z,3.60
2019-05-29T06:02:29.419Z,11.03
2019-05-29T06:04:56.769Z,4.03
2019-05-29T06:07:24.477Z,4.15
2019-05-29T06:09:52.183Z,5.03
2019-05-29T06:12:19.631Z,4.33
2019-05-29T06:14:50.671Z,4.78
2019-05-29T06:17:21.649Z,6.33
2019-05-29T06:19:47.644Z,3.90
2019-05-29T06:22:19.879Z,5.33
2019-05-29T06:24:49.663Z,4.90
2019-05-29T06:27:17.101Z,7.30
2019-05-29T06:29:44.573Z,5.83
2019-05-29T06:32:12.307Z,7.60
2019-05-29T06:34:39.727Z,4.28
2019-05-29T06:37:07.212Z,6.45
2019-05-29T06:39:35.549Z,4.95
2019-05-29T06:42:03.094Z,5.57
2019-05-29T06:44:30.550Z,6.50
2019-05-29T06:46:58.019Z,9.47
2019-05-29T06:49:25.475Z,5.90
2019-05-29T06:51:52.990Z,5.70
2019-05-29T06:54:20.444Z,8.20
2019-05-29T06:56:48.086Z,7.95
2019-05-29T06:59:15.767Z,6.55
2019-05-29T07:01:43.549Z,7.22
2019-05-29T07:04:12.492Z,8.87
2019-05-29T07:06:42.711Z,6.23
2019-05-29T07:09:12.552Z,8.80
2019-05-29T07:11:41.251Z,8.58
2019-05-29T07:14:12.486Z,6.55
2019-05-29T07:16:49.975Z,5.20
2019-05-29T07:19:24.729Z,5.78
2019-05-29T07:21:40.809Z,8.20
2019-05-29T07:24:09.428Z,8.43
2019-05-29T07:26:37.226Z,8.40
2019-05-29T07:29:08.443Z,8.23
2019-05-29T07:31:33.938Z,8.47
2019-05-29T07:34:01.435Z,6.15
2019-05-29T07:36:28.975Z,8.58
2019-05-29T07:39:03.379Z,11.25
2019-05-29T07:41:25.994Z,6.10
2019-05-29T07:43:53.731Z,9.58
2019-05-29T07:46:21.170Z,9.30
2019-05-29T07:48:50.325Z,10.28
2019-05-29T07:51:18.021Z,7.67
2019-05-29T07:53:46.447Z,9.33
2019-05-29T07:56:22.522Z,8.45
2019-05-29T07:58:49.203Z,8.03
2019-05-29T08:01:13.969Z,12.25
2019-05-29T08:03:43.467Z,7.25
2019-05-29T08:06:11.566Z,7.13
2019-05-29T08:08:41.818Z,6.70
2019-05-29T08:11:09.477Z,8.43
2019-05-29T08:13:36.851Z,7.77
2019-05-29T08:16:05.376Z,7.30
2019-05-29T08:18:32.853Z,9.07
2019-05-29T08:21:00.638Z,10.37
2019-05-29T08:23:28.072Z,7.60
2019-05-29T08:25:55.502Z,9.33
2019-05-29T08:28:23.035Z,4.75
2019-05-29T08:30:56.050Z,7.95
2019-05-29T08:33:20.230Z,6.67
2019-05-29T08:35:57.929Z,9.00
2019-05-29T08:38:19.502Z,6.95
2019-05-29T08:40:47.446Z,6.12
2019-05-29T08:43:15.174Z,8.35
2019-05-29T08:45:45.621Z,6.55
2019-05-29T08:48:13.592Z,7.37
2019-05-29T08:50:41.549Z,6.30
2019-05-29T08:53:09.279Z,9.15
2019-05-29T08:55:36.742Z,6.70
2019-05-29T08:58:04.218Z,10.45
2019-05-29T09:00:32.197Z,6.37
2019-05-29T09:03:00.190Z,8.00
2019-05-29T09:05:27.674Z,8.20
2019-05-29T09:07:56.428Z,7.60
2019-05-29T09:10:23.879Z,7.72
2019-05-29T09:13:01.823Z,5.70
2019-05-29T09:15:21.869Z,6.55
2019-05-29T09:17:49.426Z,7.15
2019-05-29T09:20:34.066Z,7.53
2019-05-29T09:22:46.596Z,17.98
2019-05-29T09:25:15.415Z,8.15
2019-05-29T09:27:42.850Z,10.30
2019-05-29T09:30:10.434Z,6.83
2019-05-29T09:32:50.520Z,9.07
2019-05-29T09:35:07.374Z,9.27
2019-05-29T09:37:34.795Z,11.83
2019-05-29T09:40:02.413Z,9.13
2019-05-29T09:42:35.018Z,9.13
2019-05-29T09:45:04.006Z,9.48
2019-05-29T09:47:32.928Z,8.10
2019-05-29T09:50:07.531Z,7.80
2019-05-29T09:52:37.994Z,7.90
2019-05-29T09:55:06.474Z,9.83
2019-05-29T09:57:36.005Z,9.95
2019-05-29T10:00:04.268Z,6.45
2019-05-29T10:02:34.270Z,7.80
2019-05-29T10:05:02.952Z,7.60
2019-05-29T10:07:32.803Z,6.62
2019-05-29T10:10:01.091Z,6.75
2019-05-29T10:12:29.799Z,7.15
2019-05-29T10:14:58.814Z,8.80
2019-05-29T10:17:26.821Z,6.40
2019-05-29T10:19:58.922Z,7.47
2019-05-29T10:22:32.505Z,8.43
2019-05-29T10:24:56.875Z,7.53
2019-05-29T10:27:24.995Z,9.47
2019-05-29T10:29:53.167Z,7.80
2019-05-29T10:32:24.684Z,9.27
2019-05-29T10:34:52.709Z,9.17
2019-05-29T10:37:22.919Z,11.43
2019-05-29T10:39:52.902Z,9.50
2019-05-29T10:42:23.796Z,9.80
2019-05-29T10:44:51.378Z,11.73
2019-05-29T10:47:18.781Z,7.37
2019-05-29T10:49:47.543Z,6.55
2019-05-29T10:52:17.422Z,7.28
2019-05-29T10:54:44.379Z,9.30
2019-05-29T10:57:13.881Z,6.97
2019-05-29T10:59:49.136Z,9.65
2019-05-29T11:02:16.557Z,5.33
2019-05-29T11:04:47.587Z,7.90
2019-05-29T11:07:13.225Z,10.03
2019-05-29T11:09:44.318Z,7.67
2019-05-29T11:12:12.352Z,6.03
2019-05-29T11:14:39.808Z,8.08
2019-05-29T11:17:07.407Z,6.40
2019-05-29T11:19:34.938Z,7.78
2019-05-29T11:22:24.717Z,8.18
2019-05-29T11:24:31.562Z,8.60
2019-05-29T11:26:59.111Z,7.60
2019-05-29T11:29:26.879Z,10.10
2019-05-29T11:31:55.041Z,10.32
2019-05-29T11:34:22.473Z,9.13
2019-05-29T11:36:50.021Z,10.00
2019-05-29T11:39:17.734Z,11.57
2019-05-29T11:41:45.191Z,8.85
2019-05-29T11:44:18.142Z,10.30
2019-05-29T11:46:47.155Z,7.05
2019-05-29T11:49:14.794Z,7.92
2019-05-29T11:51:44.378Z,9.43
2019-05-29T11:54:11.955Z,8.68
2019-05-29T11:56:44.292Z,9.38
2019-05-29T11:59:14.719Z,8.35
2019-05-29T12:01:50.333Z,5.17
2019-05-29T12:04:25.706Z,5.67
2019-05-29T12:06:42.069Z,7.45
2019-05-29T12:09:09.722Z,5.92
2019-05-29T12:11:41.435Z,8.88
2019-05-29T12:14:09.173Z,6.92
2019-05-29T12:16:36.595Z,10.08
2019-05-29T12:19:11.436Z,10.20
2019-05-29T12:21:42.546Z,10.08
2019-05-29T12:24:10.715Z,7.58
2019-05-29T12:26:38.451Z,8.23
2019-05-29T12:29:11.522Z,9.03
2019-05-29T12:31:40.275Z,7.72
2019-05-29T12:34:18.819Z,6.35
2019-05-29T12:36:37.809Z,5.30
2019-05-29T12:39:06.986Z,6.08
2019-05-29T12:41:34.478Z,5.05
2019-05-29T12:44:04.451Z,5.12
2019-05-29T12:46:31.964Z,8.35
2019-05-29T12:49:01.590Z,7.72
2019-05-29T12:51:29.250Z,6.90
2019-05-29T12:53:57.902Z,10.93
2019-05-29T12:56:25.396Z,7.10
2019-05-29T12:59:02.786Z,10.82
2019-05-29T13:01:32.106Z,9.35
2019-05-29T13:04:00.471Z,7.50
2019-05-29T13:06:30.431Z,6.25
2019-05-29T13:08:58.459Z,8.08
2019-05-29T13:11:26.032Z,9.05
2019-05-29T13:13:54.348Z,7.35
2019-05-29T13:16:22.094Z,10.00
2019-05-29T13:18:49.533Z,8.90
2019-05-29T13:21:16.988Z,8.45
2019-05-29T13:23:45.769Z,9.33
2019-05-29T13:26:13.551Z,7.62
2019-05-29T13:28:41.020Z,9.08
2019-05-29T13:31:08.662Z,9.70
2019-05-29T13:33:36.141Z,11.22
2019-05-29T13:36:04.511Z,10.30
2019-05-29T13:38:32.105Z,9.08
2019-05-29T13:41:00.396Z,10.05
2019-05-29T13:43:27.925Z,8.95
2019-05-29T13:45:56.295Z,10.32
2019-05-29T13:48:23.754Z,11.05
2019-05-29T13:50:51.190Z,9.25
2019-05-29T13:53:18.571Z,10.93
2019-05-29T13:55:46.275Z,9.15
2019-05-29T13:58:13.873Z,8.70
2019-05-29T14:00:41.323Z,8.43
2019-05-29T14:03:09.334Z,10.18
2019-05-29T14:05:37.115Z,9.40
2019-05-29T14:08:05.016Z,9.63
2019-05-29T14:10:32.369Z,11.15
2019-05-29T14:13:00.971Z,10.43
2019-05-29T14:15:28.519Z,11.05
2019-05-29T14:17:56.320Z,11.67
2019-05-29T14:20:23.744Z,13.88
2019-05-29T14:22:51.219Z,10.15
2019-05-29T14:25:19.420Z,9.98
2019-05-29T14:27:46.889Z,13.48
2019-05-29T14:30:21.447Z,11.93
2019-05-29T14:32:48.939Z,11.10
2019-05-29T14:35:16.560Z,9.60
2019-05-29T14:37:44.114Z,12.33
2019-05-29T14:40:14.215Z,7.62
2019-05-29T14:42:41.704Z,7.95
2019-05-29T14:45:12.595Z,9.33
2019-05-29T14:47:40.739Z,9.63
2019-05-29T14:50:10.968Z,8.70
2019-05-29T14:52:39.266Z,8.00
2019-05-29T14:55:08.781Z,7.90
2019-05-29T14:57:36.746Z,8.40
2019-05-29T15:00:20.963Z,8.73
2019-05-29T15:02:39.390Z,7.70
2019-05-29T15:05:07.983Z,5.65
2019-05-29T15:07:35.439Z,7.70
2019-05-29T15:10:08.669Z,7.83
2019-05-29T15:12:32.598Z,7.83
2019-05-29T15:15:00.461Z,5.05
2019-05-29T15:17:28.217Z,3.83
2019-05-29T15:19:55.668Z,5.50
2019-05-29T15:22:23.180Z,7.42
2019-05-29T15:25:04.185Z,6.45
2019-05-29T15:27:19.873Z,3.95
2019-05-29T15:29:47.275Z,4.20
2019-05-29T15:32:14.787Z,4.20
2019-05-29T15:34:42.260Z,4.47
2019-05-29T15:37:12.196Z,4.37
2019-05-29T15:39:38.920Z,3.65
2019-05-29T15:42:06.864Z,4.33
2019-05-29T15:44:34.920Z,2.95
2019-05-29T15:47:06.857Z,2.27
2019-05-29T15:49:35.047Z,5.10
2019-05-29T15:52:02.542Z,4.17
2019-05-29T15:54:30.037Z,4.85
2019-05-29T15:56:58.658Z,4.58
2019-05-29T15:59:26.183Z,3.72
2019-05-29T16:01:53.654Z,3.80
2019-05-29T16:04:22.793Z,2.83
2019-05-29T16:06:50.633Z,3.98
2019-05-29T16:09:19.307Z,4.25
2019-05-29T16:11:47.064Z,3.33
2019-05-29T16:14:14.977Z,3.23
2019-05-29T16:16:42.504Z,2.90
2019-05-29T16:19:10.394Z,3.03
2019-05-29T16:21:38.698Z,3.20
2019-05-29T16:24:06.126Z,4.37
2019-05-29T16:26:33.829Z,5.07
2019-05-29T16:29:01.339Z,3.60
2019-05-29T16:31:29.111Z,5.47
2019-05-29T16:33:56.899Z,3.75
2019-05-29T16:36:24.367Z,2.33
2019-05-29T16:38:54.189Z,4.60
2019-05-29T16:41:21.994Z,4.90
2019-05-29T16:43:49.493Z,3.70
2019-05-29T16:46:19.284Z,4.80
2019-05-29T16:48:46.650Z,3.50
2019-05-29T16:51:14.576Z,6.63
2019-05-29T16:53:42.122Z,5.07
2019-05-29T16:56:09.591Z,5.93
2019-05-29T16:58:37.042Z,7.00
2019-05-29T17:01:06.879Z,3.50
2019-05-29T17:03:46.820Z,5.50
2019-05-29T17:06:15.785Z,3.80
2019-05-29T17:08:43.766Z,2.00
2019-05-29T17:11:11.230Z,5.13
2019-05-29T17:13:38.729Z,1.83
2019-05-29T17:16:06.192Z,2.10
2019-05-29T17:18:33.653Z,3.43
2019-05-29T17:21:01.423Z,1.87
2019-05-29T17:23:28.854Z,1.63
2019-05-29T17:26:09.739Z,1.40
2019-05-29T17:28:28.344Z,1.47
2019-05-29T17:30:57.476Z,2.37
2019-05-29T17:33:25.246Z,2.63
2019-05-29T17:35:53.029Z,4.10
2019-05-29T17:38:23.369Z,2.10
2019-05-29T17:40:50.860Z,4.57
2019-05-29T17:43:22.002Z,1.40
2019-05-29T17:45:47.999Z,3.20
2019-05-29T17:48:15.772Z,3.90
2019-05-29T17:50:43.506Z,2.37
2019-05-29T17:53:10.991Z,2.07
2019-05-29T17:55:39.849Z,3.43
2019-05-29T17:58:08.830Z,2.30
2019-05-29T18:00:36.352Z,1.10
2019-05-29T18:03:04.394Z,2.83
2019-05-29T18:05:36.801Z,3.47
2019-05-29T18:08:03.981Z,1.73
2019-05-29T18:10:31.442Z,2.43
2019-05-29T18:12:58.790Z,1.40
2019-05-29T18:15:27.515Z,2.57
2019-05-29T18:17:55.381Z,3.40
2019-05-29T18:20:25.847Z,1.27
2019-05-29T18:22:53.393Z,2.30
2019-05-29T18:25:21.926Z,1.67
2019-05-29T18:27:51.712Z,3.33
2019-05-29T18:30:20.180Z,5.03
2019-05-29T18:32:54.063Z,4.03
2019-05-29T18:35:27.056Z,5.73
2019-05-29T18:37:54.610Z,5.17
2019-05-29T18:40:22.480Z,9.17
2019-05-29T18:42:49.960Z,8.93
2019-05-29T18:45:21.622Z,10.37
2019-05-29T18:47:48.077Z,15.27
2019-05-29T18:50:15.881Z,11.90
2019-05-29T18:52:48.462Z,15.00
2019-05-29T18:55:16.155Z,12.83
2019-05-29T18:57:47.951Z,11.07
2019-05-29T19:00:17.020Z,9.13
2019-05-29T19:02:44.758Z,9.60
2019-05-29T19:05:13.588Z,9.33
2019-05-29T19:07:42.438Z,8.67
2019-05-29T19:10:13.632Z,9.60
2019-05-29T19:12:41.419Z,10.83
2019-05-29T19:15:09.403Z,7.47
2019-05-29T19:17:37.550Z,7.93
2019-05-29T19:20:06.209Z,7.73
2019-05-29T19:22:33.609Z,12.20
2019-05-29T19:25:01.063Z,8.27
2019-05-29T19:27:37.442Z,8.73
2019-05-29T19:30:02.352Z,5.80
2019-05-29T19:32:29.824Z,6.67
2019-05-29T19:34:57.331Z,5.50
2019-05-29T19:37:27.913Z,6.10
2019-05-29T19:39:55.474Z,4.73
2019-05-29T19:42:24.090Z,6.80
2019-05-29T19:44:54.682Z,10.20
2019-05-29T19:47:22.059Z,7.80
2019-05-29T19:49:49.517Z,9.70
2019-05-29T19:52:17.275Z,9.23
2019-05-29T19:54:45.049Z,11.23
2019-05-29T19:57:12.782Z,4.47
2019-05-29T19:59:40.193Z,6.97
2019-05-29T20:02:07.929Z,11.17
2019-05-29T20:04:40.611Z,10.40
2019-05-29T20:07:13.942Z,6.07
2019-05-29T20:09:41.706Z,9.90
2019-05-29T20:12:09.510Z,12.53
2019-05-29T20:14:38.090Z,12.93
2019-05-29T20:17:09.778Z,12.37
2019-05-29T20:19:41.022Z,10.03
2019-05-29T20:22:08.818Z,13.37
2019-05-29T20:24:36.884Z,6.27
2019-05-29T20:27:04.442Z,10.27
2019-05-29T20:29:32.363Z,11.47
2019-05-29T20:32:02.117Z,7.47
2019-05-29T20:34:32.451Z,5.17
2019-05-29T20:37:00.464Z,8.73
2019-05-29T20:39:30.211Z,9.07
2019-05-29T20:41:59.341Z,8.93
2019-05-29T20:44:26.802Z,9.73
2019-05-29T20:46:54.166Z,8.07
2019-05-29T20:49:42.183Z,9.30
2019-05-29T20:52:09.807Z,5.13
2019-05-29T20:54:37.699Z,12.17
2019-05-29T20:57:11.164Z,9.30
2019-05-29T20:59:42.492Z,6.17
2019-05-29T21:02:09.964Z,9.57
2019-05-29T21:04:40.570Z,6.53
2019-05-29T21:07:08.679Z,7.83
2019-05-29T21:09:36.915Z,7.00
2019-05-29T21:12:04.390Z,7.70
2019-05-29T21:14:33.489Z,13.23
2019-05-29T21:17:01.096Z,13.10
2019-05-29T21:19:28.487Z,11.60
2019-05-29T21:21:58.019Z,16.70
2019-05-29T21:24:25.821Z,14.97
2019-05-29T21:26:53.513Z,14.17
2019-05-29T21:29:22.985Z,11.90
2019-05-29T21:31:50.464Z,11.20
2019-05-29T21:34:18.182Z,11.30
2019-05-29T21:36:46.370Z,10.67
2019-05-29T21:39:13.907Z,10.87
2019-05-29T21:41:42.479Z,10.10
2019-05-29T21:44:10.261Z,10.97
2019-05-29T21:46:38.744Z,12.17
2019-05-29T21:49:06.547Z,14.37
2019-05-29T21:51:33.974Z,12.80
2019-05-29T21:54:01.485Z,12.60
2019-05-29T21:56:29.246Z,11.20
2019-05-29T21:59:03.501Z,13.20
2019-05-29T22:01:26.340Z,15.90
2019-05-29T22:03:53.687Z,9.87
2019-05-29T22:06:21.431Z,16.37
2019-05-29T22:08:48.857Z,7.30
2019-05-29T22:11:16.658Z,7.73
2019-05-29T22:13:44.086Z,9.90
2019-05-29T22:16:11.807Z,9.47
2019-05-29T22:18:39.531Z,7.40
2019-05-29T22:21:06.939Z,7.53
2019-05-29T22:23:34.721Z,7.03
2019-05-29T22:26:02.062Z,3.90
2019-05-29T22:28:29.501Z,6.53
2019-05-29T22:30:57.362Z,9.40
2019-05-29T22:33:24.783Z,3.50
2019-05-29T22:35:54.017Z,7.33
2019-05-29T22:38:21.861Z,6.23
2019-05-29T22:40:49.351Z,5.83
2019-05-29T22:43:17.031Z,4.37
2019-05-29T22:45:44.357Z,5.93
2019-05-29T22:48:11.821Z,3.97
2019-05-29T22:50:39.538Z,5.43
2019-05-29T22:53:06.986Z,3.80
2019-05-29T22:55:35.756Z,2.50
2019-05-29T22:58:13.636Z,6.73
2019-05-29T23:00:41.194Z,6.67
2019-05-29T23:03:09.991Z,3.73
2019-05-29T23:05:37.414Z,5.90
2019-05-29T23:08:04.860Z,2.83
2019-05-29T23:10:34.859Z,6.73
2019-05-29T23:13:05.943Z,4.17
2019-05-29T23:15:33.893Z,5.87
2019-05-29T23:18:02.435Z,6.07
2019-05-29T23:20:30.421Z,4.53
2019-05-29T23:22:58.614Z,4.87
2019-05-29T23:25:26.075Z,5.67
2019-05-29T23:27:54.810Z,6.90
2019-05-29T23:30:22.679Z,3.73
2019-05-29T23:32:53.345Z,10.00
2019-05-29T23:35:20.782Z,4.53
2019-05-29T23:37:48.225Z,4.77
2019-05-29T23:40:15.588Z,2.97
2019-05-29T23:42:43.034Z,3.13
2019-05-29T23:45:10.851Z,4.00
2019-05-29T23:47:38.598Z,6.20
2019-05-29T23:50:07.819Z,4.00
2019-05-29T23:52:37.248Z,4.37
2019-05-29T23:55:04.810Z,2.63
2019-05-29T23:57:38.091Z,6.83
